createdAt,value
2018-07-27T00:00:05.142Z,99795.56
2018-07-27T00:02:35.640Z,99792.94
2018-07-27T00:05:03.981Z,99793.07
2018-07-27T00:07:32.551Z,99789.83
2018-07-27T00:10:01.090Z,99789.63
2018-07-27T00:12:30.539Z,99782.09
2018-07-27T00:14:58.329Z,99785.45
2018-07-27T00:17:27.311Z,99780.66
2018-07-27T00:19:55.496Z,99780.75
2018-07-27T00:22:23.189Z,99780.87
2018-07-27T00:24:51.598Z,99785.05
2018-07-27T00:27:19.597Z,99788.20
2018-07-27T00:29:49.178Z,99780.95
2018-07-27T00:32:18.209Z,99781.39
2018-07-27T00:34:47.295Z,99780.97
2018-07-27T00:37:18.340Z,99781.06
2018-07-27T00:39:46.037Z,99775.75
2018-07-27T00:42:14.432Z,99776.69
2018-07-27T00:44:43.429Z,99776.27
2018-07-27T00:47:13.636Z,99778.56
2018-07-27T00:49:43.131Z,99778.97
2018-07-27T00:52:10.833Z,99782.11
2018-07-27T00:54:38.510Z,99783.05
2018-07-27T00:57:06.373Z,99779.37
2018-07-27T00:59:34.389Z,99774.56
2018-07-27T01:02:03.366Z,99764.12
2018-07-27T01:04:31.761Z,99767.46
2018-07-27T01:06:59.453Z,99759.70
2018-07-27T01:09:28.397Z,99762.34
2018-07-27T01:11:56.380Z,99758.15
2018-07-27T01:14:24.777Z,99758.55
2018-07-27T01:16:52.924Z,99758.97
2018-07-27T01:19:20.600Z,99752.48
2018-07-27T01:21:48.275Z,99750.36
2018-07-27T01:24:15.968Z,99753.16
2018-07-27T01:26:46.741Z,99748.34
2018-07-27T01:29:14.425Z,99747.30
2018-07-27T01:31:42.127Z,99747.69
2018-07-27T01:34:09.897Z,99741.02
2018-07-27T01:36:37.934Z,99743.61
2018-07-27T01:39:05.648Z,99744.35
2018-07-27T01:41:33.334Z,99741.71
2018-07-27T01:44:01.077Z,99744.00
2018-07-27T01:46:29.072Z,99740.34
2018-07-27T01:48:56.729Z,99743.99
2018-07-27T01:51:24.397Z,99743.56
2018-07-27T01:53:52.377Z,99743.13
2018-07-27T01:56:20.063Z,99743.86
2018-07-27T01:58:47.774Z,99739.86
2018-07-27T02:01:15.497Z,99742.03
2018-07-27T02:03:43.599Z,99739.42
2018-07-27T02:06:11.297Z,99740.53
2018-07-27T02:08:39.824Z,99737.89
2018-07-27T02:11:08.413Z,99739.12
2018-07-27T02:13:41.269Z,99740.36
2018-07-27T02:16:10.313Z,99736.39
2018-07-27T02:18:38.754Z,99738.45
2018-07-27T02:21:06.433Z,99728.33
2018-07-27T02:23:34.700Z,99728.02
2018-07-27T02:26:02.449Z,99724.33
2018-07-27T02:28:31.081Z,99726.09
2018-07-27T02:30:59.943Z,99723.80
2018-07-27T02:33:27.714Z,99716.14
2018-07-27T02:35:55.440Z,99714.23
2018-07-27T02:38:23.771Z,99718.05
2018-07-27T02:40:51.873Z,99722.59
2018-07-27T02:43:19.615Z,99720.58
2018-07-27T02:45:47.288Z,99716.98
2018-07-27T02:48:14.981Z,99720.67
2018-07-27T02:50:42.970Z,99716.00
2018-07-27T02:53:10.701Z,99718.48
2018-07-27T02:55:38.425Z,99715.14
2018-07-27T02:58:06.141Z,99714.16
2018-07-27T03:00:34.148Z,99710.19
2018-07-27T03:03:03.493Z,99714.84
2018-07-27T03:05:31.165Z,99711.56
2018-07-27T03:07:58.864Z,99711.80
2018-07-27T03:10:26.814Z,99705.52
2018-07-27T03:12:54.522Z,99712.53
2018-07-27T03:15:22.245Z,99709.59
2018-07-27T03:17:49.910Z,99706.44
2018-07-27T03:20:17.881Z,99715.97
2018-07-27T03:22:45.617Z,99715.02
2018-07-27T03:25:14.137Z,99717.09
2018-07-27T03:27:41.869Z,99717.64
2018-07-27T03:30:09.837Z,99723.91
2018-07-27T03:32:37.524Z,99720.88
2018-07-27T03:35:05.240Z,99715.15
2018-07-27T03:37:32.912Z,99719.39
2018-07-27T03:40:00.890Z,99719.58
2018-07-27T03:42:28.605Z,99718.09
2018-07-27T03:44:56.905Z,99721.73
2018-07-27T03:47:25.861Z,99720.07
2018-07-27T03:49:53.568Z,99715.55
2018-07-27T03:52:22.401Z,99714.78
2018-07-27T03:54:51.157Z,99709.41
2018-07-27T03:57:18.853Z,99713.55
2018-07-27T03:59:46.546Z,99708.36
2018-07-27T04:02:14.272Z,99710.30
2018-07-27T04:04:42.442Z,99706.31
2018-07-27T04:07:10.182Z,99715.25
2018-07-27T04:09:37.913Z,99719.44
2018-07-27T04:12:05.625Z,99714.48
2018-07-27T04:14:33.597Z,99719.01
2018-07-27T04:17:01.345Z,99719.28
2018-07-27T04:19:29.545Z,99717.03
2018-07-27T04:21:58.332Z,99717.63
2018-07-27T04:24:26.026Z,99714.97
2018-07-27T04:26:53.721Z,99720.48
2018-07-27T04:29:21.708Z,99722.42
2018-07-27T04:31:49.730Z,99714.38
2018-07-27T04:34:17.452Z,99716.10
2018-07-27T04:36:45.141Z,99717.32
2018-07-27T04:39:13.460Z,99716.99
2018-07-27T04:41:41.181Z,99719.87
2018-07-27T04:44:09.953Z,99717.66
2018-07-27T04:46:37.978Z,99712.75
2018-07-27T04:49:06.402Z,99709.20
2018-07-27T04:51:34.093Z,99717.92
2018-07-27T04:54:01.778Z,99712.16
2018-07-27T04:56:29.487Z,99713.47
2018-07-27T04:58:57.594Z,99712.39
2018-07-27T05:01:25.286Z,99719.13
2018-07-27T05:03:52.973Z,99715.50
2018-07-27T05:06:21.906Z,99721.53
2018-07-27T05:08:54.475Z,99720.97
2018-07-27T05:11:22.381Z,99718.06
2018-07-27T05:13:50.458Z,99715.79
2018-07-27T05:16:18.129Z,99719.48
2018-07-27T05:18:45.805Z,99723.16
2018-07-27T05:21:13.778Z,99723.08
2018-07-27T05:23:41.482Z,99721.61
2018-07-27T05:26:10.358Z,99723.75
2018-07-27T05:28:38.451Z,99722.81
2018-07-27T05:31:06.117Z,99722.51
2018-07-27T05:33:33.809Z,99724.07
2018-07-27T05:36:01.810Z,99726.45
2018-07-27T05:38:29.500Z,99729.16
2018-07-27T05:40:57.201Z,99724.48
2018-07-27T05:43:25.318Z,99725.28
2018-07-27T05:45:53.012Z,99723.03
2018-07-27T05:48:20.708Z,99724.88
2018-07-27T05:50:48.725Z,99723.78
2018-07-27T05:53:16.494Z,99725.52
2018-07-27T05:55:44.235Z,99720.38
2018-07-27T05:58:12.200Z,99719.56
2018-07-27T06:00:39.876Z,99720.64
2018-07-27T06:03:07.576Z,99720.64
2018-07-27T06:05:35.652Z,99717.83
2018-07-27T06:08:03.328Z,99714.15
2018-07-27T06:10:31.015Z,99713.73
2018-07-27T06:12:58.989Z,99715.80
2018-07-27T06:15:26.650Z,99712.95
2018-07-27T06:17:54.361Z,99710.13
2018-07-27T06:20:22.369Z,99705.86
2018-07-27T06:22:50.077Z,99706.02
2018-07-27T06:25:18.368Z,99710.86
2018-07-27T06:27:46.357Z,99711.95
2018-07-27T06:30:14.108Z,99711.06
2018-07-27T06:32:41.791Z,99708.52
2018-07-27T06:35:09.818Z,99712.80
2018-07-27T06:37:37.559Z,99707.69
2018-07-27T06:40:05.272Z,99710.22
2018-07-27T06:42:33.492Z,99717.89
2018-07-27T06:45:01.184Z,99710.41
2018-07-27T06:47:29.605Z,99714.00
2018-07-27T06:49:57.571Z,99715.77
2018-07-27T06:52:25.336Z,99713.61
2018-07-27T06:54:53.198Z,99718.62
2018-07-27T06:57:21.163Z,99715.59
2018-07-27T06:59:48.845Z,99715.14
2018-07-27T07:02:16.548Z,99714.67
2018-07-27T07:04:44.543Z,99716.88
2018-07-27T07:07:12.287Z,99709.50
2018-07-27T07:09:41.018Z,99707.03
2018-07-27T07:12:08.992Z,99711.66
2018-07-27T07:14:36.738Z,99710.51
2018-07-27T07:17:05.042Z,99706.88
2018-07-27T07:19:33.052Z,99708.22
2018-07-27T07:22:00.775Z,99702.97
2018-07-27T07:24:28.452Z,99704.01
2018-07-27T07:26:56.465Z,99705.53
2018-07-27T07:29:24.732Z,99699.36
2018-07-27T07:31:52.428Z,99706.12
2018-07-27T07:34:20.428Z,99701.11
2018-07-27T07:36:48.137Z,99699.09
2018-07-27T07:39:15.862Z,99697.03
2018-07-27T07:41:43.920Z,99694.11
2018-07-27T07:44:11.637Z,99696.44
2018-07-27T07:46:40.537Z,99694.15
2018-07-27T07:49:09.308Z,99697.25
2018-07-27T07:51:38.826Z,99697.88
2018-07-27T07:54:06.540Z,99692.23
2018-07-27T07:56:34.995Z,99693.12
2018-07-27T07:59:03.258Z,99696.50
2018-07-27T08:01:31.576Z,99694.94
2018-07-27T08:03:59.525Z,99694.16
2018-07-27T08:06:28.013Z,99689.02
2018-07-27T08:08:57.752Z,99691.81
2018-07-27T08:11:27.133Z,99688.83
2018-07-27T08:13:54.828Z,99687.25
2018-07-27T08:16:23.823Z,99684.82
2018-07-27T08:18:51.788Z,99682.16
2018-07-27T08:21:20.836Z,99678.39
2018-07-27T08:23:49.717Z,99674.83
2018-07-27T08:26:17.732Z,99675.44
2018-07-27T08:28:45.790Z,99676.04
2018-07-27T08:31:13.492Z,99675.23
2018-07-27T08:33:41.480Z,99670.30
2018-07-27T08:36:09.181Z,99668.42
2018-07-27T08:38:37.945Z,99665.39
2018-07-27T08:41:06.000Z,99665.75
2018-07-27T08:43:33.665Z,99666.34
2018-07-27T08:46:01.356Z,99666.13
2018-07-27T08:48:29.422Z,99662.84
2018-07-27T08:50:58.389Z,99663.42
2018-07-27T08:53:27.017Z,99649.08
2018-07-27T08:55:54.976Z,99653.52
2018-07-27T08:58:22.640Z,99642.51
2018-07-27T09:00:56.748Z,99644.48
2018-07-27T09:03:24.767Z,99642.28
2018-07-27T09:05:52.563Z,99637.59
2018-07-27T09:08:20.970Z,99639.23
2018-07-27T09:10:49.497Z,99634.56
2018-07-27T09:13:18.493Z,99637.91
2018-07-27T09:15:47.495Z,99635.67
2018-07-27T09:18:16.344Z,99633.72
2018-07-27T09:20:44.097Z,99629.85
2018-07-27T09:23:11.934Z,99629.58
2018-07-27T09:25:39.688Z,99629.55
2018-07-27T09:28:08.308Z,99631.19
2018-07-27T09:30:36.699Z,99630.07
2018-07-27T09:33:06.076Z,99622.84
2018-07-27T09:35:35.201Z,99623.92
2018-07-27T09:38:03.471Z,99622.48
2018-07-27T09:40:31.352Z,99612.21
2018-07-27T09:43:00.867Z,99620.75
2018-07-27T09:45:30.349Z,99612.44
2018-07-27T09:47:58.021Z,99610.98
2018-07-27T09:50:25.697Z,99604.23
2018-07-27T09:52:54.501Z,99600.73
2018-07-27T09:55:25.816Z,99597.16
2018-07-27T09:57:53.611Z,99593.81
2018-07-27T10:00:26.745Z,99599.22
2018-07-27T10:02:55.536Z,99592.38
2018-07-27T10:05:23.278Z,99583.80
2018-07-27T10:07:52.994Z,99590.80
2018-07-27T10:10:20.680Z,99586.02
2018-07-27T10:12:48.684Z,99586.23
2018-07-27T10:15:19.215Z,99580.98
2018-07-27T10:17:47.723Z,99580.41
2018-07-27T10:20:16.017Z,99576.38
2018-07-27T10:22:43.975Z,99571.00
2018-07-27T10:25:12.476Z,99569.98
2018-07-27T10:27:40.984Z,99567.27
2018-07-27T10:30:09.081Z,99565.19
2018-07-27T10:32:38.565Z,99564.02
2018-07-27T10:35:08.425Z,99565.97
2018-07-27T10:37:37.160Z,99561.84
2018-07-27T10:40:04.909Z,99563.77
2018-07-27T10:42:33.368Z,99553.61
2018-07-27T10:45:03.356Z,99551.47
2018-07-27T10:47:31.064Z,99547.14
2018-07-27T10:49:58.737Z,99546.10
2018-07-27T10:52:27.385Z,99551.72
2018-07-27T10:54:55.092Z,99553.53
2018-07-27T10:57:23.366Z,99543.75
2018-07-27T10:59:51.583Z,99543.55
2018-07-27T11:02:20.282Z,99543.63
2018-07-27T11:04:48.209Z,99533.56
2018-07-27T11:07:17.341Z,99530.69
2018-07-27T11:09:45.675Z,99525.84
2018-07-27T11:12:18.281Z,99520.97
2018-07-27T11:14:46.340Z,99517.95
2018-07-27T11:17:15.004Z,99521.46
2018-07-27T11:19:42.772Z,99522.89
2018-07-27T11:22:11.541Z,99520.46
2018-07-27T11:24:40.796Z,99512.22
2018-07-27T11:27:08.650Z,99515.28
2018-07-27T11:29:36.640Z,99518.80
2018-07-27T11:32:04.341Z,99516.45
2018-07-27T11:34:33.666Z,99498.73
2018-07-27T11:37:01.661Z,99504.20
2018-07-27T11:39:30.545Z,99494.70
2018-07-27T11:41:58.250Z,99492.92
2018-07-27T11:44:26.200Z,99489.58
2018-07-27T11:46:56.817Z,99486.30
2018-07-27T11:49:24.544Z,99481.23
2018-07-27T11:51:53.676Z,99478.08
2018-07-27T11:54:22.539Z,99481.64
2018-07-27T11:56:51.812Z,99482.29
2018-07-27T11:59:20.424Z,99481.66
2018-07-27T12:01:48.111Z,99477.91
2018-07-27T12:04:15.903Z,99473.21
2018-07-27T12:06:44.491Z,99461.60
2018-07-27T12:09:12.841Z,99459.30
2018-07-27T12:11:41.227Z,99457.30
2018-07-27T12:14:09.440Z,99461.88
2018-07-27T12:16:37.029Z,99459.22
2018-07-27T12:19:04.742Z,99463.23
2018-07-27T12:21:32.827Z,99461.26
2018-07-27T12:24:00.838Z,99452.31
2018-07-27T12:26:28.558Z,99450.29
2018-07-27T12:28:56.581Z,99447.61
2018-07-27T12:31:24.345Z,99445.02
2018-07-27T12:33:52.402Z,99447.89
2018-07-27T12:36:20.398Z,99446.70
2018-07-27T12:38:48.212Z,99446.67
2018-07-27T12:41:15.909Z,99445.84
2018-07-27T12:43:43.872Z,99432.14
2018-07-27T12:46:11.706Z,99434.09
2018-07-27T12:48:40.004Z,99428.47
2018-07-27T12:51:07.965Z,99423.12
2018-07-27T12:53:35.644Z,99423.19
2018-07-27T12:56:03.331Z,99414.86
2018-07-27T12:58:31.282Z,99425.38
2018-07-27T13:01:00.044Z,99418.72
2018-07-27T13:03:28.941Z,99411.00
2018-07-27T13:06:00.442Z,99416.83
2018-07-27T13:08:28.378Z,99407.27
2018-07-27T13:10:56.145Z,99401.98
2018-07-27T13:13:24.536Z,99398.48
2018-07-27T13:15:52.228Z,99395.04
2018-07-27T13:18:19.942Z,99400.29
2018-07-27T13:20:50.668Z,99391.27
2018-07-27T13:23:18.782Z,99389.06
2018-07-27T13:25:46.713Z,99390.63
2018-07-27T13:28:14.861Z,99377.00
2018-07-27T13:30:42.558Z,99381.23
2018-07-27T13:33:12.722Z,99370.92
2018-07-27T13:38:09.195Z,99369.45
2018-07-27T13:40:37.981Z,99367.25
2018-07-27T13:43:06.142Z,99360.13
2018-07-27T13:45:33.881Z,99362.66
2018-07-27T13:48:02.576Z,99357.12
2018-07-27T13:50:30.742Z,99362.14
2018-07-27T13:52:58.484Z,99345.09
2018-07-27T13:55:30.547Z,99339.22
2018-07-27T13:57:58.635Z,99343.87
2018-07-27T14:00:27.278Z,99340.89
2018-07-27T14:02:58.402Z,99333.92
2018-07-27T14:05:27.839Z,99344.29
2018-07-27T14:07:56.249Z,99337.91
2018-07-27T14:10:25.705Z,99328.84
2018-07-27T14:12:56.781Z,99321.20
2018-07-27T14:15:32.205Z,99316.75
2018-07-27T14:17:59.961Z,99315.84
2018-07-27T14:20:31.578Z,99305.52
2018-07-27T14:23:02.336Z,99316.76
2018-07-27T14:25:30.072Z,99313.78
2018-07-27T14:27:58.223Z,99312.72
2018-07-27T14:30:26.010Z,99309.05
2018-07-27T14:32:53.725Z,99296.58
2018-07-27T14:35:21.784Z,99306.44
2018-07-27T14:37:49.490Z,99296.66
2018-07-27T14:40:17.180Z,99301.20
2018-07-27T14:42:47.096Z,99291.59
2018-07-27T14:45:14.846Z,99293.97
2018-07-27T14:47:42.855Z,99288.56
2018-07-27T14:50:11.929Z,99282.28
2018-07-27T14:52:39.736Z,99284.70
2018-07-27T14:55:07.435Z,99282.28
2018-07-27T14:57:35.652Z,99278.58
2018-07-27T15:00:06.568Z,99276.66
2018-07-27T15:02:34.260Z,99270.88
2018-07-27T15:05:02.465Z,99266.19
2018-07-27T15:07:32.085Z,99267.03
2018-07-27T15:10:00.477Z,99274.30
2018-07-27T15:12:29.616Z,99269.72
2018-07-27T15:14:57.309Z,99263.47
2018-07-27T15:17:26.509Z,99258.27
2018-07-27T15:19:54.691Z,99256.44
2018-07-27T15:22:22.383Z,99263.16
2018-07-27T15:24:50.282Z,99261.70
2018-07-27T15:27:19.200Z,99256.34
2018-07-27T15:29:47.492Z,99250.94
2018-07-27T15:32:16.436Z,99253.24
2018-07-27T15:34:46.727Z,99251.50
2018-07-27T15:37:15.568Z,99254.53
2018-07-27T15:39:44.482Z,99252.42
2018-07-27T15:42:12.213Z,99251.08
2018-07-27T15:44:40.989Z,99248.47
2018-07-27T15:47:10.320Z,99241.46
2018-07-27T15:49:38.536Z,99240.78
2018-07-27T15:52:07.408Z,99238.65
2018-07-27T15:54:36.155Z,99247.13
2018-07-27T15:57:04.345Z,99247.39
2018-07-27T15:59:33.598Z,99238.59
2018-07-27T16:02:01.708Z,99233.33
2018-07-27T16:04:29.405Z,99240.59
2018-07-27T16:07:01.450Z,99224.31
2018-07-27T16:09:30.613Z,99214.73
2018-07-27T16:11:59.271Z,99220.42
2018-07-27T16:14:29.427Z,99215.91
2018-07-27T16:16:58.361Z,99202.41
2018-07-27T16:19:28.522Z,99202.95
2018-07-27T16:21:57.531Z,99203.19
2018-07-27T16:24:26.494Z,99201.30
2018-07-27T16:26:54.237Z,99203.34
2018-07-27T16:29:22.005Z,99201.72
2018-07-27T16:31:50.029Z,99192.69
2018-07-27T16:34:18.590Z,99192.42
2018-07-27T16:36:48.948Z,99194.69
2018-07-27T16:39:18.632Z,99193.73
2018-07-27T16:41:46.661Z,99190.02
2018-07-27T16:44:15.188Z,99192.70
2018-07-27T16:46:43.672Z,99191.25
2018-07-27T16:49:11.370Z,99189.69
2018-07-27T16:51:39.109Z,99187.09
2018-07-27T16:54:07.168Z,99191.15
2018-07-27T16:56:34.887Z,99192.89
2018-07-27T16:59:02.589Z,99186.37
2018-07-27T17:01:30.560Z,99187.70
2018-07-27T17:03:59.002Z,99184.69
2018-07-27T17:06:27.677Z,99181.08
2018-07-27T17:08:56.749Z,99181.16
2018-07-27T17:11:24.670Z,99180.41
2018-07-27T17:13:53.063Z,99182.58
2018-07-27T17:16:22.333Z,99185.34
2018-07-27T17:18:50.905Z,99185.28
2018-07-27T17:21:18.725Z,99182.97
2018-07-27T17:23:47.901Z,99180.14
2018-07-27T17:26:16.237Z,99181.67
2018-07-27T17:28:47.479Z,99178.80
2018-07-27T17:31:15.672Z,99187.47
2018-07-27T17:33:43.346Z,99184.27
2018-07-27T17:36:11.727Z,99187.42
2018-07-27T17:38:39.833Z,99181.16
2018-07-27T17:41:08.176Z,99182.08
2018-07-27T17:43:36.653Z,99179.09
2018-07-27T17:46:04.718Z,99181.35
2018-07-27T17:48:33.589Z,99183.64
2018-07-27T17:51:02.485Z,99180.97
2018-07-27T17:53:30.564Z,99178.27
2018-07-27T17:56:00.239Z,99177.51
2018-07-27T17:58:28.661Z,99175.64
2018-07-27T18:00:56.797Z,99179.88
2018-07-27T18:03:30.699Z,99174.65
2018-07-27T18:05:58.410Z,99173.34
2018-07-27T18:08:26.518Z,99171.20
2018-07-27T18:10:54.218Z,99164.08
2018-07-27T18:13:21.957Z,99170.22
2018-07-27T18:15:50.131Z,99171.95
2018-07-27T18:18:19.096Z,99174.47
2018-07-27T18:20:46.916Z,99171.17
2018-07-27T18:23:16.388Z,99165.14
2018-07-27T18:25:44.110Z,99164.63
2018-07-27T18:28:12.516Z,99166.31
2018-07-27T18:30:40.641Z,99171.62
2018-07-27T18:33:08.556Z,99174.13
2018-07-27T18:35:38.499Z,99172.23
2018-07-27T18:38:07.639Z,99169.23
2018-07-27T18:40:39.379Z,99169.25
2018-07-27T18:43:08.482Z,99167.89
2018-07-27T18:45:39.888Z,99167.91
2018-07-27T18:48:08.595Z,99162.98
2018-07-27T18:50:36.263Z,99160.27
2018-07-27T18:53:04.241Z,99160.02
2018-07-27T18:55:31.941Z,99161.13
2018-07-27T18:57:59.663Z,99162.25
2018-07-27T19:00:28.478Z,99161.72
2018-07-27T19:02:57.668Z,99160.08
2018-07-27T19:05:25.402Z,99157.59
2018-07-27T19:07:54.419Z,99156.26
2018-07-27T19:10:22.972Z,99159.31
2018-07-27T19:12:50.717Z,99161.80
2018-07-27T19:15:19.397Z,99167.60
2018-07-27T19:17:47.210Z,99161.24
2018-07-27T19:20:14.931Z,99172.55
2018-07-27T19:22:43.045Z,99171.15
2018-07-27T19:25:11.291Z,99171.16
2018-07-27T19:27:39.641Z,99177.49
2018-07-27T19:30:08.702Z,99177.96
2018-07-27T19:32:37.596Z,99173.52
2018-07-27T19:35:06.982Z,99171.27
2018-07-27T19:37:34.956Z,99171.19
2018-07-27T19:40:02.655Z,99177.72
2018-07-27T19:42:32.934Z,99176.02
2018-07-27T19:45:02.098Z,99178.96
2018-07-27T19:47:29.821Z,99176.12
2018-07-27T19:49:57.521Z,99178.22
2018-07-27T19:52:26.466Z,99178.98
2018-07-27T19:54:54.322Z,99180.27
2018-07-27T19:57:22.799Z,99175.27
2018-07-27T19:59:50.884Z,99176.25
2018-07-27T20:02:19.214Z,99175.89
2018-07-27T20:04:48.071Z,99176.66
2018-07-27T20:07:17.035Z,99182.03
2018-07-27T20:09:44.716Z,99182.19
2018-07-27T20:12:12.385Z,99170.57
2018-07-27T20:14:40.357Z,99175.12
2018-07-27T20:17:08.713Z,99174.74
2018-07-27T20:19:38.524Z,99173.55
2018-07-27T20:22:06.629Z,99172.92
2018-07-27T20:24:39.467Z,99184.02
2018-07-27T20:27:07.223Z,99176.21
2018-07-27T20:29:34.966Z,99176.88
2018-07-27T20:32:02.709Z,99170.43
2018-07-27T20:34:31.305Z,99169.50
2018-07-27T20:37:09.526Z,99164.42
2018-07-27T20:39:37.220Z,99166.83
2018-07-27T20:42:05.250Z,99164.53
2018-07-27T20:44:32.968Z,99163.92
2018-07-27T20:47:01.269Z,99166.00
2018-07-27T20:49:29.213Z,99171.42
2018-07-27T20:52:01.217Z,99169.09
2018-07-27T20:54:28.937Z,99174.55
2018-07-27T20:56:57.274Z,99171.17
2018-07-27T20:59:25.004Z,99171.40
2018-07-27T21:01:53.345Z,99175.41
2018-07-27T21:04:21.307Z,99181.34
2018-07-27T21:06:49.020Z,99183.70
2018-07-27T21:09:17.416Z,99178.13
2018-07-27T21:11:47.021Z,99175.58
2018-07-27T21:14:14.704Z,99170.05
2018-07-27T21:16:42.364Z,99173.49
2018-07-27T21:19:10.833Z,99172.34
2018-07-27T21:21:38.523Z,99168.77
2018-07-27T21:24:06.248Z,99167.67
2018-07-27T21:26:35.643Z,99168.11
2018-07-27T21:29:03.366Z,99171.41
2018-07-27T21:31:31.092Z,99168.05
2018-07-27T21:33:59.076Z,99169.88
2018-07-27T21:36:27.771Z,99175.30
2018-07-27T21:38:55.520Z,99174.73
2018-07-27T21:41:23.552Z,99173.59
2018-07-27T21:43:58.557Z,99167.60
2018-07-27T21:46:26.534Z,99162.95
2018-07-27T21:48:56.042Z,99168.18
2018-07-27T21:54:01.391Z,99172.56
2018-07-27T21:56:29.948Z,99175.52
2018-07-27T21:59:00.848Z,99174.00
2018-07-27T22:01:30.443Z,99170.84
2018-07-27T22:03:58.124Z,99175.63
2018-07-27T22:06:25.845Z,99165.09
2018-07-27T22:08:55.325Z,99171.76
2018-07-27T22:11:24.285Z,99174.09
2018-07-27T22:13:53.493Z,99169.03
2018-07-27T22:16:22.485Z,99164.83
2018-07-27T22:18:51.729Z,99166.92
2018-07-27T22:21:21.865Z,99165.20
2018-07-27T22:23:54.602Z,99169.80
2018-07-27T22:26:23.108Z,99166.20
2018-07-27T22:28:51.420Z,99158.73
2018-07-27T22:31:20.259Z,99159.14
2018-07-27T22:33:48.633Z,99149.78
2018-07-27T22:36:17.902Z,99148.53
2018-07-27T22:38:47.398Z,99150.62
2018-07-27T22:41:16.607Z,99149.98
2018-07-27T22:43:46.625Z,99147.97
2018-07-27T22:46:14.732Z,99149.83
2018-07-27T22:48:43.270Z,99153.02
2018-07-27T22:51:11.755Z,99143.05
2018-07-27T22:53:40.360Z,99143.51
2018-07-27T22:56:12.755Z,99137.92
2018-07-27T22:58:41.394Z,99138.42
2018-07-27T23:01:09.421Z,99133.45
2018-07-27T23:03:37.270Z,99127.09
2018-07-27T23:06:06.888Z,99125.92
2018-07-27T23:08:37.277Z,99123.36
2018-07-27T23:11:12.589Z,99125.73
2018-07-27T23:13:41.726Z,99111.15
2018-07-27T23:16:11.800Z,99112.16
2018-07-27T23:18:42.779Z,99112.94
2018-07-27T23:21:13.553Z,99114.04
2018-07-27T23:23:42.179Z,99110.27
2018-07-27T23:26:10.580Z,99102.48
2018-07-27T23:28:42.122Z,99108.06
2018-07-27T23:31:12.485Z,99098.58
2018-07-27T23:33:43.076Z,99089.03
2018-07-27T23:36:11.758Z,99092.69
2018-07-27T23:38:40.672Z,99091.45
2018-07-27T23:41:08.610Z,99089.02
2018-07-27T23:43:36.589Z,99089.80
2018-07-27T23:46:05.384Z,99091.04
2018-07-27T23:48:36.436Z,99089.26
2018-07-27T23:51:05.508Z,99086.89
2018-07-27T23:53:33.688Z,99083.23
2018-07-27T23:56:03.314Z,99078.20
2018-07-27T23:58:33.556Z,99079.37
